createdAt,value
2022-12-13T00:01:54.262Z,-7.57
2022-12-13T00:04:24.763Z,-7.38
2022-12-13T00:06:54.951Z,-7.31
2022-12-13T00:09:24.392Z,-7.38
2022-12-13T00:11:53.688Z,-7.76
2022-12-13T00:14:23.948Z,-7.45
2022-12-13T00:16:52.391Z,-7.60
2022-12-13T00:19:21.870Z,-7.54
2022-12-13T00:21:50.725Z,-7.56
2022-12-13T00:24:19.079Z,-7.61
2022-12-13T00:26:47.588Z,-8.14
2022-12-13T00:29:16.287Z,-7.76
2022-12-13T00:32:01.622Z,-7.93
2022-12-13T00:34:30.500Z,-7.97
2022-12-13T00:37:05.348Z,-7.88
2022-12-13T00:39:33.886Z,-8.25
2022-12-13T00:42:02.549Z,-7.94
2022-12-13T00:44:31.393Z,-7.90
2022-12-13T00:47:01.209Z,-8.06
2022-12-13T00:49:29.800Z,-7.93
2022-12-13T00:51:58.211Z,-8.14
2022-12-13T00:54:26.699Z,-7.91
2022-12-13T00:56:55.749Z,-8.24
2022-12-13T00:59:24.761Z,-7.93
2022-12-13T01:01:54.445Z,-8.12
2022-12-13T01:04:24.323Z,-7.93
2022-12-13T01:06:54.030Z,-7.91
2022-12-13T01:09:27.402Z,-8.07
2022-12-13T01:11:59.148Z,-7.98
2022-12-13T01:14:28.595Z,-7.90
2022-12-13T01:16:57.447Z,-7.92
2022-12-13T01:19:30.641Z,-7.91
2022-12-13T01:22:00.808Z,-8.14
2022-12-13T01:24:30.240Z,-7.97
2022-12-13T01:26:59.079Z,-8.03
2022-12-13T01:29:28.364Z,-7.91
2022-12-13T01:31:57.071Z,-7.93
2022-12-13T01:34:27.706Z,-7.88
2022-12-13T01:36:58.685Z,-7.86
2022-12-13T01:39:28.362Z,-8.23
2022-12-13T01:42:00.146Z,-8.88
2022-12-13T01:45:06.396Z,-7.86
2022-12-13T01:47:40.639Z,-7.86
2022-12-13T01:50:14.070Z,-7.92
2022-12-13T01:52:42.527Z,-8.05
2022-12-13T01:55:11.426Z,-8.02
2022-12-13T01:57:45.590Z,-8.25
2022-12-13T02:00:15.147Z,-8.08
2022-12-13T02:02:43.758Z,-8.14
2022-12-13T02:05:20.584Z,-9.05
2022-12-13T02:07:51.188Z,-8.20
2022-12-13T02:10:19.973Z,-8.25
2022-12-13T02:12:48.858Z,-8.27
2022-12-13T02:15:20.494Z,-8.27
2022-12-13T02:18:12.755Z,-8.26
2022-12-13T02:21:15.583Z,-8.28
2022-12-13T02:24:28.566Z,-8.27
2022-12-13T02:27:02.383Z,-8.44
2022-12-13T02:30:01.578Z,-8.56
2022-12-13T02:32:35.749Z,-8.45
2022-12-13T02:35:10.306Z,-8.40
2022-12-13T02:37:48.273Z,-8.59
2022-12-13T02:40:23.670Z,-8.31
2022-12-13T02:43:00.397Z,-8.27
2022-12-13T02:45:32.965Z,-8.26
2022-12-13T02:48:05.677Z,-8.26
2022-12-13T02:50:35.469Z,-8.24
2022-12-13T02:53:04.666Z,-8.24
2022-12-13T02:55:36.024Z,-8.43
2022-12-13T02:58:04.510Z,-8.41
2022-12-13T03:00:43.190Z,-8.31
2022-12-13T03:03:28.288Z,-8.37
2022-12-13T03:06:24.144Z,-8.15
2022-12-13T03:09:07.852Z,-8.13
2022-12-13T03:12:05.307Z,-8.19
2022-12-13T03:14:37.915Z,-8.24
2022-12-13T03:17:08.956Z,-8.82
2022-12-13T03:19:38.975Z,-8.45
2022-12-13T03:22:08.497Z,-8.28
2022-12-13T03:24:37.216Z,-8.71
2022-12-13T03:27:06.136Z,-8.34
2022-12-13T03:29:34.513Z,-9.30
2022-12-13T03:32:03.829Z,-8.40
2022-12-13T03:34:43.706Z,-8.41
2022-12-13T03:37:14.953Z,-8.34
2022-12-13T03:39:43.319Z,-8.34
2022-12-13T03:42:11.657Z,-8.40
2022-12-13T03:44:39.993Z,-8.45
2022-12-13T03:47:08.437Z,-8.58
2022-12-13T03:49:36.947Z,-8.70
2022-12-13T03:52:05.436Z,-8.43
2022-12-13T03:54:35.243Z,-8.56
2022-12-13T03:57:03.659Z,-8.59
2022-12-13T03:59:32.025Z,-8.65
2022-12-13T04:02:00.846Z,-8.64
2022-12-13T04:04:29.448Z,-8.67
2022-12-13T04:06:58.419Z,-8.86
2022-12-13T04:09:29.239Z,-9.04
2022-12-13T04:12:16.761Z,-8.79
2022-12-13T04:14:45.156Z,-9.11
2022-12-13T04:17:13.484Z,-9.13
2022-12-13T04:19:41.859Z,-9.11
2022-12-13T04:22:10.207Z,-9.02
2022-12-13T04:24:38.884Z,-8.80
2022-12-13T04:27:08.705Z,-8.80
2022-12-13T04:29:37.316Z,-8.78
2022-12-13T04:32:26.721Z,-8.80
2022-12-13T04:35:01.023Z,-8.91
2022-12-13T04:37:30.422Z,-8.77
2022-12-13T04:40:00.967Z,-9.07
2022-12-13T04:42:31.727Z,-8.77
2022-12-13T04:45:00.292Z,-8.79
2022-12-13T04:47:28.652Z,-9.02
2022-12-13T04:49:57.071Z,-8.79
2022-12-13T04:52:25.525Z,-8.81
2022-12-13T04:54:55.467Z,-8.97
2022-12-13T04:57:24.900Z,-8.77
2022-12-13T04:59:55.026Z,-8.76
2022-12-13T05:02:24.349Z,-9.23
2022-12-13T05:04:54.003Z,-8.74
2022-12-13T05:07:23.156Z,-8.76
2022-12-13T05:09:51.532Z,-8.68
2022-12-13T05:12:22.599Z,-8.67
2022-12-13T05:14:51.860Z,-8.64
2022-12-13T05:17:22.241Z,-9.24
2022-12-13T05:19:50.593Z,-8.67
2022-12-13T05:22:20.847Z,-8.91
2022-12-13T05:24:50.628Z,-8.49
2022-12-13T05:27:25.017Z,-8.49
2022-12-13T05:30:02.976Z,-8.56
2022-12-13T05:32:44.120Z,-8.47
2022-12-13T05:35:21.847Z,-8.56
2022-12-13T05:37:53.543Z,-8.49
2022-12-13T05:40:23.205Z,-8.60
2022-12-13T05:42:51.768Z,-8.70
2022-12-13T05:45:29.765Z,-8.64
2022-12-13T05:47:59.809Z,-8.57
2022-12-13T05:50:28.345Z,-8.57
2022-12-13T05:52:56.842Z,-8.74
2022-12-13T05:55:25.333Z,-8.88
2022-12-13T05:57:53.819Z,-8.51
2022-12-13T06:00:31.217Z,-8.47
2022-12-13T06:03:02.125Z,-8.59
2022-12-13T06:05:31.114Z,-8.63
2022-12-13T06:08:00.578Z,-8.50
2022-12-13T06:10:34.941Z,-8.52
2022-12-13T06:13:21.634Z,-8.74
2022-12-13T06:16:01.247Z,-8.53
2022-12-13T06:18:32.791Z,-8.56
2022-12-13T06:21:02.842Z,-8.67
2022-12-13T06:23:32.265Z,-8.62
2022-12-13T06:26:01.077Z,-8.61
2022-12-13T06:28:29.385Z,-8.59
2022-12-13T06:31:02.343Z,-8.56
2022-12-13T06:33:35.800Z,-8.53
2022-12-13T06:36:05.755Z,-8.67
2022-12-13T06:38:34.497Z,-8.50
2022-12-13T06:41:13.139Z,-8.49
2022-12-13T06:43:44.207Z,-8.47
2022-12-13T06:46:14.888Z,-8.46
2022-12-13T06:48:45.205Z,-9.12
2022-12-13T06:51:22.456Z,-8.64
2022-12-13T06:53:51.912Z,-8.43
2022-12-13T06:56:20.408Z,-8.44
2022-12-13T06:58:49.006Z,-8.43
2022-12-13T07:01:24.594Z,-8.45
2022-12-13T07:03:56.309Z,-8.45
2022-12-13T07:06:25.857Z,-8.83
2022-12-13T07:08:56.951Z,-8.54
2022-12-13T07:11:28.150Z,-8.57
2022-12-13T07:13:58.487Z,-8.61
2022-12-13T07:16:28.332Z,-8.61
2022-12-13T07:19:00.732Z,-8.82
2022-12-13T07:21:31.981Z,-8.59
2022-12-13T07:24:01.360Z,-8.52
2022-12-13T07:26:29.766Z,-8.50
2022-12-13T07:28:58.262Z,-8.43
2022-12-13T07:31:27.057Z,-8.43
2022-12-13T07:33:55.759Z,-8.45
2022-12-13T07:36:29.124Z,-8.46
2022-12-13T07:38:57.833Z,-8.51
2022-12-13T07:41:28.095Z,-8.46
2022-12-13T07:43:57.175Z,-8.43
2022-12-13T07:46:33.477Z,-8.45
2022-12-13T07:49:03.809Z,-8.38
2022-12-13T07:51:35.406Z,-8.36
2022-12-13T07:54:06.490Z,-8.36
2022-12-13T07:56:36.167Z,-8.33
2022-12-13T07:59:04.746Z,-8.29
2022-12-13T08:01:34.819Z,-8.46
2022-12-13T08:04:03.985Z,-8.19
2022-12-13T08:06:36.562Z,-8.21
2022-12-13T08:09:07.129Z,-8.18
2022-12-13T08:11:35.823Z,-8.32
2022-12-13T08:14:04.395Z,-8.08
2022-12-13T08:16:32.936Z,-8.03
2022-12-13T08:19:04.274Z,-8.04
2022-12-13T08:21:54.754Z,-8.05
2022-12-13T08:24:24.772Z,-8.14
2022-12-13T08:26:53.172Z,-7.93
2022-12-13T08:29:22.318Z,-7.89
2022-12-13T08:32:01.175Z,-7.86
2022-12-13T08:34:30.225Z,-7.81
2022-12-13T08:37:02.285Z,-7.80
2022-12-13T08:39:34.479Z,-7.80
2022-12-13T08:42:15.796Z,-7.80
2022-12-13T08:44:48.117Z,-7.83
2022-12-13T08:47:24.763Z,-7.81
2022-12-13T08:49:55.273Z,-7.85
2022-12-13T08:52:25.467Z,-7.75
2022-12-13T08:54:54.215Z,-7.73
2022-12-13T08:57:22.516Z,-7.69
2022-12-13T08:59:51.156Z,-7.65
2022-12-13T09:02:19.613Z,-7.60
2022-12-13T09:04:48.036Z,-7.56
2022-12-13T09:07:16.316Z,-7.50
2022-12-13T09:09:46.389Z,-7.45
2022-12-13T09:12:29.773Z,-7.42
2022-12-13T09:15:01.308Z,-7.39
2022-12-13T09:17:37.028Z,-7.33
2022-12-13T09:20:28.086Z,-7.33
2022-12-13T09:23:01.999Z,-7.47
2022-12-13T09:25:37.448Z,-7.16
2022-12-13T09:28:09.235Z,-7.10
2022-12-13T09:30:37.997Z,-7.04
2022-12-13T09:33:17.853Z,-8.01
2022-12-13T09:35:56.001Z,-6.98
2022-12-13T09:38:24.423Z,-7.22
2022-12-13T09:40:58.455Z,-6.85
2022-12-13T09:43:32.546Z,-6.78
2022-12-13T09:46:13.501Z,-7.23
2022-12-13T09:49:01.742Z,-6.64
2022-12-13T09:51:41.544Z,-6.55
2022-12-13T09:54:20.054Z,-6.48
2022-12-13T09:56:51.888Z,-6.45
2022-12-13T09:59:22.833Z,-6.29
2022-12-13T10:01:51.826Z,-6.19
2022-12-13T10:04:20.443Z,-6.14
2022-12-13T10:06:53.363Z,-5.98
2022-12-13T10:09:22.360Z,-6.11
2022-12-13T10:11:53.838Z,-5.82
2022-12-13T10:14:28.274Z,-5.74
2022-12-13T10:16:59.426Z,-6.08
2022-12-13T10:19:34.330Z,-5.88
2022-12-13T10:22:05.203Z,-5.34
2022-12-13T10:24:53.093Z,-5.16
2022-12-13T10:27:28.956Z,-5.03
2022-12-13T10:30:03.071Z,-4.89
2022-12-13T10:32:37.718Z,-4.88
2022-12-13T10:35:22.049Z,-4.63
2022-12-13T10:37:50.668Z,-4.47
2022-12-13T10:40:33.382Z,-4.42
2022-12-13T10:43:18.434Z,-4.34
2022-12-13T10:45:59.987Z,-4.22
2022-12-13T10:48:38.306Z,-4.57
2022-12-13T10:51:11.001Z,-4.14
2022-12-13T10:53:47.406Z,-4.03
2022-12-13T10:56:23.093Z,-3.95
2022-12-13T10:59:16.508Z,-3.84
2022-12-13T11:01:45.537Z,-3.76
2022-12-13T11:04:27.964Z,-3.64
2022-12-13T11:06:57.910Z,-3.59
2022-12-13T11:09:29.012Z,-3.50
2022-12-13T11:12:00.219Z,-3.41
2022-12-13T11:14:40.317Z,-3.41
2022-12-13T11:17:18.291Z,-3.28
2022-12-13T11:19:50.818Z,-3.21
2022-12-13T11:22:23.641Z,-3.15
2022-12-13T11:24:54.460Z,-3.08
2022-12-13T11:27:50.021Z,-2.99
2022-12-13T11:30:24.023Z,-2.94
2022-12-13T11:33:14.004Z,-2.86
2022-12-13T11:35:56.265Z,-2.84
2022-12-13T11:38:31.900Z,-2.82
2022-12-13T11:41:07.693Z,-2.78
2022-12-13T11:43:42.761Z,-2.74
2022-12-13T11:46:22.356Z,-2.78
2022-12-13T11:48:57.677Z,-2.83
2022-12-13T11:51:32.458Z,-2.86
2022-12-13T11:54:05.007Z,-2.78
2022-12-13T11:56:38.840Z,-2.80
2022-12-13T11:59:24.243Z,-2.78
2022-12-13T12:02:04.926Z,-2.85
2022-12-13T12:04:39.682Z,-2.92
2022-12-13T12:07:31.960Z,-2.90
2022-12-13T12:10:07.793Z,-2.93
2022-12-13T12:12:37.821Z,-3.05
2022-12-13T12:15:15.246Z,-2.98
2022-12-13T12:17:46.589Z,-2.96
2022-12-13T12:20:23.761Z,-2.95
2022-12-13T12:23:01.470Z,-3.48
2022-12-13T12:25:43.657Z,-2.92
2022-12-13T12:28:22.618Z,-2.91
2022-12-13T12:30:57.975Z,-2.90
2022-12-13T12:33:38.414Z,-2.90
2022-12-13T12:36:20.163Z,-2.89
2022-12-13T12:39:20.763Z,-2.88
2022-12-13T12:42:11.771Z,-2.89
2022-12-13T12:44:53.409Z,-2.90
2022-12-13T12:47:57.546Z,-2.89
2022-12-13T12:50:37.249Z,-2.91
2022-12-13T12:53:39.103Z,-2.93
2022-12-13T12:56:21.311Z,-3.21
2022-12-13T12:58:57.079Z,-2.91
2022-12-13T13:01:43.912Z,-3.17
2022-12-13T13:04:22.482Z,-2.92
2022-12-13T13:07:01.381Z,-3.21
2022-12-13T13:09:31.393Z,-3.02
2022-12-13T13:12:29.415Z,-3.08
2022-12-13T13:14:53.448Z,-3.15
2022-12-13T13:17:55.102Z,-3.25
2022-12-13T13:20:26.850Z,-3.32
2022-12-13T13:23:31.961Z,-3.34
2022-12-13T13:26:15.968Z,-3.39
2022-12-13T13:28:42.739Z,-3.56
2022-12-13T13:31:11.410Z,-3.33
2022-12-13T13:33:47.072Z,-3.28
2022-12-13T13:36:48.438Z,-3.30
2022-12-13T13:39:20.253Z,-3.35
2022-12-13T13:42:11.209Z,-3.39
2022-12-13T13:44:55.046Z,-3.44
2022-12-13T13:47:44.679Z,-3.70
2022-12-13T13:50:53.672Z,-3.90
2022-12-13T13:53:57.787Z,-3.83
2022-12-13T14:00:24.748Z,-3.85
2022-12-13T14:03:34.977Z,-3.84
2022-12-13T14:06:49.554Z,-3.86
2022-12-13T14:09:47.187Z,-4.18
2022-12-13T14:12:57.434Z,-4.16
2022-12-13T14:16:06.580Z,-3.90
2022-12-13T14:19:24.648Z,-4.00
2022-12-13T14:22:17.070Z,-4.00
2022-12-13T14:24:55.332Z,-4.06
2022-12-13T14:27:37.109Z,-4.13
2022-12-13T14:30:26.979Z,-4.15
2022-12-13T14:32:55.207Z,-4.17
2022-12-13T14:35:27.557Z,-4.26
2022-12-13T14:38:02.771Z,-4.32
2022-12-13T14:40:34.208Z,-4.67
2022-12-13T14:43:03.282Z,-4.42
2022-12-13T14:45:33.707Z,-4.44
2022-12-13T14:48:06.012Z,-4.50
2022-12-13T14:50:36.853Z,-4.57
2022-12-13T14:53:06.913Z,-4.63
2022-12-13T14:55:37.607Z,-4.74
2022-12-13T14:58:18.008Z,-4.71
2022-12-13T15:00:47.372Z,-4.86
2022-12-13T15:03:23.015Z,-4.97
2022-12-13T15:05:55.688Z,-4.94
2022-12-13T15:08:26.446Z,-5.01
2022-12-13T15:10:57.279Z,-5.30
2022-12-13T15:13:34.575Z,-5.22
2022-12-13T15:16:10.536Z,-5.22
2022-12-13T15:18:39.801Z,-5.26
2022-12-13T15:21:22.148Z,-5.26
2022-12-13T15:23:54.278Z,-5.19
2022-12-13T15:26:29.085Z,-5.38
2022-12-13T15:29:00.737Z,-5.16
2022-12-13T15:31:29.667Z,-5.36
2022-12-13T15:34:28.358Z,-5.49
2022-12-13T15:36:59.456Z,-5.30
2022-12-13T15:39:32.460Z,-5.33
2022-12-13T15:42:01.443Z,-5.35
2022-12-13T15:44:32.191Z,-5.35
2022-12-13T15:47:04.245Z,-5.42
2022-12-13T15:49:36.388Z,-5.47
2022-12-13T15:52:08.332Z,-5.53
2022-12-13T15:54:38.184Z,-5.55
2022-12-13T15:57:15.789Z,-5.58
2022-12-13T15:59:46.118Z,-5.65
2022-12-13T16:02:18.466Z,-5.65
2022-12-13T16:04:47.467Z,-5.90
2022-12-13T16:07:26.188Z,-5.72
2022-12-13T16:09:57.043Z,-5.76
2022-12-13T16:12:30.679Z,-5.75
2022-12-13T16:15:29.092Z,-5.80
2022-12-13T16:18:07.997Z,-5.80
2022-12-13T16:20:36.904Z,-5.83
2022-12-13T16:23:08.951Z,-5.84
2022-12-13T16:25:39.183Z,-5.98
2022-12-13T16:28:08.095Z,-5.89
2022-12-13T16:31:02.511Z,-5.90
2022-12-13T16:33:31.380Z,-5.97
2022-12-13T16:35:59.829Z,-5.98
2022-12-13T16:38:29.553Z,-5.97
2022-12-13T16:41:08.958Z,-6.11
2022-12-13T16:43:41.513Z,-5.99
2022-12-13T16:47:13.373Z,-6.07
2022-12-13T16:49:06.730Z,-6.17
2022-12-13T16:51:35.132Z,-6.15
2022-12-13T16:54:03.555Z,-6.26
2022-12-13T16:56:33.547Z,-6.30
2022-12-13T16:59:02.183Z,-6.35
2022-12-13T17:01:33.087Z,-6.72
2022-12-13T17:04:05.439Z,-6.37
2022-12-13T17:06:37.492Z,-6.38
2022-12-13T17:09:06.032Z,-6.40
2022-12-13T17:11:36.061Z,-6.54
2022-12-13T17:14:05.914Z,-6.45
2022-12-13T17:16:35.079Z,-6.45
2022-12-13T17:19:04.505Z,-6.51
2022-12-13T17:21:32.915Z,-6.52
2022-12-13T17:24:03.019Z,-6.55
2022-12-13T17:26:31.429Z,-6.77
2022-12-13T17:29:01.676Z,-6.61
2022-12-13T17:31:35.297Z,-6.66
2022-12-13T17:34:04.717Z,-6.84
2022-12-13T17:36:33.502Z,-6.75
2022-12-13T17:39:03.081Z,-6.78
2022-12-13T17:41:31.404Z,-6.82
2022-12-13T17:44:01.811Z,-6.80
2022-12-13T17:46:30.195Z,-6.79
2022-12-13T17:48:58.869Z,-6.84
2022-12-13T17:51:27.265Z,-6.91
2022-12-13T17:53:55.762Z,-6.93
2022-12-13T17:56:24.356Z,-6.92
2022-12-13T17:58:52.761Z,-6.91
2022-12-13T18:01:23.980Z,-6.88
2022-12-13T18:03:54.988Z,-6.85
2022-12-13T18:06:23.656Z,-6.84
2022-12-13T18:08:52.531Z,-6.85
2022-12-13T18:11:37.640Z,-6.82
2022-12-13T18:14:07.684Z,-6.87
2022-12-13T18:16:39.105Z,-6.82
2022-12-13T18:19:10.098Z,-6.91
2022-12-13T18:21:39.321Z,-7.32
2022-12-13T18:24:08.716Z,-7.01
2022-12-13T18:26:37.525Z,-7.00
2022-12-13T18:29:06.440Z,-7.41
2022-12-13T18:31:35.087Z,-6.95
2022-12-13T18:34:05.152Z,-6.92
2022-12-13T18:36:33.553Z,-7.32
2022-12-13T18:39:02.269Z,-6.93
2022-12-13T18:41:32.379Z,-7.10
2022-12-13T18:44:02.197Z,-6.94
2022-12-13T18:46:32.876Z,-6.96
2022-12-13T18:49:01.411Z,-6.95
2022-12-13T18:51:31.169Z,-6.95
2022-12-13T18:54:00.724Z,-6.93
2022-12-13T18:56:29.382Z,-6.94
2022-12-13T18:58:59.648Z,-6.93
2022-12-13T19:01:28.843Z,-6.95
2022-12-13T19:03:57.690Z,-7.01
2022-12-13T19:06:27.257Z,-7.11
2022-12-13T19:08:58.795Z,-7.15
2022-12-13T19:11:28.809Z,-7.08
2022-12-13T19:13:57.743Z,-7.05
2022-12-13T19:16:26.827Z,-7.10
2022-12-13T19:18:55.591Z,-7.08
2022-12-13T19:21:24.940Z,-7.13
2022-12-13T19:23:57.717Z,-7.09
2022-12-13T19:26:29.609Z,-7.11
2022-12-13T19:28:59.481Z,-7.12
2022-12-13T19:31:31.837Z,-7.09
2022-12-13T19:34:01.965Z,-7.57
2022-12-13T19:36:30.757Z,-7.27
2022-12-13T19:38:59.246Z,-7.16
2022-12-13T19:41:29.747Z,-7.09
2022-12-13T19:43:58.231Z,-7.11
2022-12-13T19:46:27.372Z,-7.11
2022-12-13T19:48:57.509Z,-7.12
2022-12-13T19:51:26.269Z,-7.14
2022-12-13T19:53:55.020Z,-7.15
2022-12-13T19:56:24.174Z,-7.44
2022-12-13T19:58:54.282Z,-7.37
2022-12-13T20:01:22.806Z,-7.32
2022-12-13T20:03:51.471Z,-7.35
2022-12-13T20:06:22.269Z,-7.40
2022-12-13T20:08:51.457Z,-7.39
2022-12-13T20:11:22.177Z,-7.60
2022-12-13T20:13:54.651Z,-7.57
2022-12-13T20:16:26.929Z,-7.35
2022-12-13T20:18:57.787Z,-7.33
2022-12-13T20:21:27.222Z,-7.32
2022-12-13T20:23:56.097Z,-7.36
2022-12-13T20:26:25.892Z,-7.32
2022-12-13T20:28:54.712Z,-7.31
2022-12-13T20:31:27.022Z,-7.31
2022-12-13T20:33:57.051Z,-7.31
2022-12-13T20:36:27.902Z,-7.70
2022-12-13T20:38:58.021Z,-7.38
2022-12-13T20:41:28.266Z,-7.37
2022-12-13T20:43:58.264Z,-7.21
2022-12-13T20:46:29.160Z,-7.17
2022-12-13T20:48:59.262Z,-7.22
2022-12-13T20:51:29.781Z,-7.16
2022-12-13T20:53:58.888Z,-7.18
2022-12-13T20:56:28.916Z,-7.18
2022-12-13T20:58:57.529Z,-7.20
2022-12-13T21:01:30.534Z,-7.25
2022-12-13T21:04:01.423Z,-7.51
2022-12-13T21:06:30.570Z,-7.16
2022-12-13T21:09:02.990Z,-7.14
2022-12-13T21:11:33.081Z,-7.20
2022-12-13T21:14:09.131Z,-7.16
2022-12-13T21:16:44.440Z,-7.12
2022-12-13T21:19:14.909Z,-7.14
2022-12-13T21:21:43.412Z,-7.13
2022-12-13T21:24:15.145Z,-7.14
2022-12-13T21:26:43.543Z,-7.16
2022-12-13T21:29:12.993Z,-7.27
2022-12-13T21:31:48.866Z,-7.19
2022-12-13T21:34:18.990Z,-7.19
2022-12-13T21:36:48.877Z,-7.19
2022-12-13T21:39:18.559Z,-7.47
2022-12-13T21:41:47.351Z,-7.17
2022-12-13T21:44:17.122Z,-7.13
2022-12-13T21:47:11.244Z,-7.52
2022-12-13T21:49:35.295Z,-7.12
2022-12-13T21:52:03.677Z,-7.11
2022-12-13T21:54:32.321Z,-7.15
2022-12-13T21:57:18.298Z,-7.14
2022-12-13T21:59:47.491Z,-7.11
2022-12-13T22:02:19.366Z,-7.11
2022-12-13T22:04:49.621Z,-7.11
2022-12-13T22:07:19.990Z,-7.11
2022-12-13T22:09:49.162Z,-7.17
2022-12-13T22:12:22.765Z,-7.24
2022-12-13T22:14:52.164Z,-7.12
2022-12-13T22:17:29.670Z,-7.12
2022-12-13T22:20:03.422Z,-7.18
2022-12-13T22:22:31.794Z,-7.28
2022-12-13T22:25:00.349Z,-7.55
2022-12-13T22:27:28.790Z,-7.24
2022-12-13T22:29:58.704Z,-7.21
2022-12-13T22:32:31.308Z,-7.21
2022-12-13T22:35:00.513Z,-7.22
2022-12-13T22:37:28.859Z,-7.19
2022-12-13T22:39:57.282Z,-7.15
2022-12-13T22:42:25.758Z,-7.19
2022-12-13T22:44:54.121Z,-7.33
2022-12-13T22:47:22.495Z,-7.16
2022-12-13T22:49:52.350Z,-7.21
2022-12-13T22:52:20.685Z,-7.23
2022-12-13T22:54:49.016Z,-7.22
2022-12-13T22:57:17.379Z,-7.24
2022-12-13T22:59:45.783Z,-7.24
2022-12-13T23:02:14.170Z,-7.36
2022-12-13T23:04:42.586Z,-7.29
2022-12-13T23:07:12.325Z,-7.21
2022-12-13T23:09:40.784Z,-7.18
2022-12-13T23:12:26.803Z,-7.41
2022-12-13T23:14:55.324Z,-7.17
2022-12-13T23:17:23.619Z,-7.14
2022-12-13T23:19:53.642Z,-7.12
2022-12-13T23:22:25.219Z,-7.09
2022-12-13T23:24:54.536Z,-7.05
2022-12-13T23:27:24.377Z,-7.06
2022-12-13T23:29:53.365Z,-7.06
2022-12-13T23:32:21.641Z,-7.02
2022-12-13T23:34:50.030Z,-7.51
2022-12-13T23:37:18.365Z,-7.01
2022-12-13T23:39:48.720Z,-7.01
2022-12-13T23:42:17.155Z,-7.00
2022-12-13T23:44:45.581Z,-7.02
2022-12-13T23:47:13.974Z,-7.01
2022-12-13T23:49:42.329Z,-7.00
2022-12-13T23:52:10.954Z,-7.20
2022-12-13T23:54:39.657Z,-6.99
2022-12-13T23:57:09.382Z,-6.95
2022-12-13T23:59:37.722Z,-6.92
